Time;durP1;ratioP1;P1;durP2;ratioP2;P2;SDS_P1;SDS_P2;PMS_P1;PMS_P2;Temp;Humidity;BMP_temperature;BMP_pressure;BME280_temperature;BME280_humidity;BME280_pressure;Samples;Min_cycle;Max_cycle;Signal;HPM_P1;HPM_P2
2022/12/14 00:00:59;;;;;;;118.38;44.35;;;;;;;;;;6248771;28;20578;-68
2022/12/14 00:03:59;;;;;;;119.90;41.85;;;;;;;;;;6250996;28;20045;-67
2022/12/14 00:07:00;;;;;;;112.15;42.00;;;;;;;;;;6249477;28;20045;-67
2022/12/14 00:10:00;;;;;;;114.70;42.15;;;;;;;;;;6248882;28;20047;-69
2022/12/14 00:13:01;;;;;;;120.57;42.97;;;;;;;;;;6247272;28;20045;-67
2022/12/14 00:16:30;;;;;;;125.63;43.33;;;;;;;;;;6249255;28;20914;-69
2022/12/14 00:19:31;;;;;;;115.70;41.33;;;;;;;;;;6247182;28;20395;-68
2022/12/14 00:22:31;;;;;;;108.80;40.25;;;;;;;;;;6245821;28;20042;-68
2022/12/14 00:25:32;;;;;;;119.65;43.00;;;;;;;;;;6250431;28;20065;-67
2022/12/14 00:28:32;;;;;;;130.23;45.38;;;;;;;;;;6247382;28;20053;-68
2022/12/14 00:31:33;;;;;;;142.07;49.45;;;;;;;;;;6247252;28;20041;-68
2022/12/14 00:34:34;;;;;;;121.18;44.45;;;;;;;;;;6246542;28;20045;-68
2022/12/14 00:37:35;;;;;;;138.18;48.55;;;;;;;;;;6248943;28;20072;-69
2022/12/14 00:40:35;;;;;;;150.05;50.50;;;;;;;;;;6250480;28;20546;-67
2022/12/14 00:43:36;;;;;;;128.40;48.30;;;;;;;;;;6256110;28;20463;-68
2022/12/14 00:46:37;;;;;;;128.45;49.00;;;;;;;;;;6248955;28;20033;-68
2022/12/14 00:49:38;;;;;;;154.68;54.17;;;;;;;;;;6247258;28;20439;-69
2022/12/14 00:52:38;;;;;;;155.60;56.33;;;;;;;;;;6247143;28;20045;-70
2022/12/14 00:55:41;;;;;;;150.73;54.40;;;;;;;;;;6247564;28;20135;-68
2022/12/14 00:58:42;;;;;;;155.43;54.38;;;;;;;;;;6246354;28;20052;-68
2022/12/14 01:01:42;;;;;;;149.95;52.72;;;;;;;;;;6245723;28;20053;-69
2022/12/14 01:04:43;;;;;;;151.93;53.92;;;;;;;;;;6247172;28;20056;-69
2022/12/14 01:07:43;;;;;;;146.07;52.53;;;;;;;;;;6245835;28;20156;-69
2022/12/14 01:10:44;;;;;;;132.73;48.70;;;;;;;;;;6261419;28;20400;-67
2022/12/14 01:13:44;;;;;;;139.27;49.95;;;;;;;;;;6250203;28;20483;-68
2022/12/14 01:16:45;;;;;;;139.38;51.60;;;;;;;;;;6247958;28;20091;-67
2022/12/14 01:19:46;;;;;;;135.73;48.97;;;;;;;;;;6246563;28;20056;-67
2022/12/14 01:22:46;;;;;;;136.23;45.95;;;;;;;;;;6244250;28;20122;-68
2022/12/14 01:25:47;;;;;;;138.80;46.67;;;;;;;;;;6257186;28;20496;-70
2022/12/14 01:28:51;;;;;;;125.90;45.22;;;;;;;;;;6248084;28;20103;-68
2022/12/14 01:31:52;;;;;;;119.68;44.47;;;;;;;;;;6247995;28;20068;-68
2022/12/14 01:34:52;;;;;;;118.90;43.67;;;;;;;;;;6246009;28;20179;-68
2022/12/14 01:37:53;;;;;;;116.57;43.40;;;;;;;;;;6261841;28;20048;-69
2022/12/14 01:40:57;;;;;;;115.03;42.95;;;;;;;;;;6248274;28;20061;-70
2022/12/14 01:44:00;;;;;;;106.07;41.55;;;;;;;;;;6246477;28;20056;-68
2022/12/14 01:47:08;;;;;;;107.90;40.17;;;;;;;;;;6246444;28;20049;-68
2022/12/14 01:50:18;;;;;;;108.93;41.78;;;;;;;;;;6256217;28;20506;-69
2022/12/14 01:53:22;;;;;;;106.53;40.60;;;;;;;;;;6244731;28;20091;-69
2022/12/14 01:56:22;;;;;;;113.82;42.42;;;;;;;;;;6263118;28;20055;-68
2022/12/14 01:59:28;;;;;;;111.35;40.90;;;;;;;;;;6257261;28;20049;-68
2022/12/14 02:02:28;;;;;;;109.93;39.00;;;;;;;;;;6247901;28;20055;-67
2022/12/14 02:05:33;;;;;;;112.32;40.78;;;;;;;;;;6246611;28;20038;-68
2022/12/14 02:08:34;;;;;;;97.45;35.90;;;;;;;;;;6250677;28;20163;-68
2022/12/14 02:12:14;;;;;;;107.67;39.63;;;;;;;;;;6263445;28;20075;-68
2022/12/14 02:15:15;;;;;;;99.93;35.80;;;;;;;;;;6247264;28;20187;-69
2022/12/14 02:18:19;;;;;;;88.85;33.65;;;;;;;;;;6249021;28;20068;-67
2022/12/14 02:21:29;;;;;;;99.10;37.47;;;;;;;;;;6267516;28;20110;-68
2022/12/14 02:24:35;;;;;;;98.97;36.08;;;;;;;;;;6253034;28;20431;-68
2022/12/14 02:27:45;;;;;;;90.85;35.08;;;;;;;;;;6246272;28;20076;-67
2022/12/14 02:30:55;;;;;;;90.63;33.40;;;;;;;;;;6247941;28;21065;-69
2022/12/14 02:34:10;;;;;;;93.63;35.35;;;;;;;;;;6253007;28;20098;-68
2022/12/14 02:37:28;;;;;;;79.47;32.53;;;;;;;;;;6251299;28;20052;-70
2022/12/14 02:40:46;;;;;;;81.75;32.72;;;;;;;;;;6253663;28;20380;-66
2022/12/14 02:44:02;;;;;;;89.22;34.25;;;;;;;;;;6266450;28;20049;-67
2022/12/14 02:47:13;;;;;;;92.20;33.53;;;;;;;;;;6266167;28;20509;-68
2022/12/14 02:50:20;;;;;;;79.85;32.17;;;;;;;;;;6255957;28;20053;-68
2022/12/14 02:53:31;;;;;;;92.20;34.42;;;;;;;;;;6265899;28;20399;-68
2022/12/14 02:56:38;;;;;;;85.78;31.90;;;;;;;;;;6258004;28;20052;-68
2022/12/14 02:59:41;;;;;;;85.13;31.77;;;;;;;;;;6267280;28;20601;-70
2022/12/14 03:02:44;;;;;;;78.55;32.53;;;;;;;;;;6256024;28;20136;-68
2022/12/14 03:06:00;;;;;;;80.28;32.05;;;;;;;;;;6251372;28;20083;-68
2022/12/14 03:09:15;;;;;;;82.53;30.50;;;;;;;;;;6252030;28;20056;-70
2022/12/14 03:12:18;;;;;;;87.82;33.75;;;;;;;;;;6268987;28;20106;-68
2022/12/14 03:15:20;;;;;;;82.45;33.40;;;;;;;;;;6247962;28;20045;-68
2022/12/14 03:18:23;;;;;;;;;;;;;;;;;;6250658;28;20051;-69
2022/12/14 03:21:28;;;;;;;70.30;29.65;;;;;;;;;;6251191;28;20496;-68
2022/12/14 03:24:37;;;;;;;83.80;33.13;;;;;;;;;;6246774;28;20099;-68
2022/12/14 03:27:47;;;;;;;77.35;31.88;;;;;;;;;;6252718;28;20049;-67
2022/12/14 03:30:54;;;;;;;77.60;32.13;;;;;;;;;;6254296;28;20044;-67
2022/12/14 03:33:58;;;;;;;80.45;31.00;;;;;;;;;;6267816;28;20059;-68
2022/12/14 03:37:29;;;;;;;87.13;32.00;;;;;;;;;;6246722;28;20495;-68
2022/12/14 03:40:35;;;;;;;85.85;32.80;;;;;;;;;;6246661;28;20107;-68
2022/12/14 03:43:52;;;;;;;78.07;30.40;;;;;;;;;;6249008;28;20514;-69
2022/12/14 03:46:58;;;;;;;75.00;29.27;;;;;;;;;;6247796;28;20059;-68
2022/12/14 03:50:08;;;;;;;74.28;31.00;;;;;;;;;;6248349;28;20133;-69
2022/12/14 03:53:11;;;;;;;85.38;33.55;;;;;;;;;;6266192;28;20484;-67
2022/12/14 03:56:34;;;;;;;79.85;30.80;;;;;;;;;;6258789;28;20079;-68
2022/12/14 03:59:44;;;;;;;77.03;30.17;;;;;;;;;;6246444;28;20061;-68
2022/12/14 04:03:07;;;;;;;74.65;30.17;;;;;;;;;;6246199;28;20055;-69
2022/12/14 04:06:16;;;;;;;74.63;29.50;;;;;;;;;;6248438;28;20065;-66
2022/12/14 04:09:39;;;;;;;70.90;28.40;;;;;;;;;;6249083;28;20045;-69
2022/12/14 04:19:55;;;;;;;77.07;32.13;;;;;;;;;;6246806;28;20489;-70
2022/12/14 04:23:03;;;;;;;72.78;30.42;;;;;;;;;;6247613;28;20045;-67
2022/12/14 04:26:08;;;;;;;75.95;30.98;;;;;;;;;;6243636;28;20049;-68
2022/12/14 04:32:49;;;;;;;80.70;30.38;;;;;;;;;;6248858;28;20041;-68
2022/12/14 04:35:50;;;;;;;71.55;28.35;;;;;;;;;;6243329;28;20045;-68
2022/12/14 04:38:57;;;;;;;84.67;32.13;;;;;;;;;;6242248;28;20087;-69
2022/12/14 04:42:02;;;;;;;75.57;31.80;;;;;;;;;;6242139;28;20765;-67
2022/12/14 04:45:12;;;;;;;85.65;33.95;;;;;;;;;;6247616;28;20531;-68
2022/12/14 04:48:45;;;;;;;79.78;30.77;;;;;;;;;;6249084;28;20041;-69
2022/12/14 04:51:52;;;;;;;;;;;;;;;;;;6211519;28;20107;-67
2022/12/14 04:55:15;;;;;;;78.25;29.55;;;;;;;;;;6247401;28;19921;-67
2022/12/14 04:58:24;;;;;;;76.97;30.83;;;;;;;;;;6246334;28;20132;-70
2022/12/14 05:01:44;;;;;;;79.82;30.88;;;;;;;;;;6246208;28;20216;-68
2022/12/14 05:05:00;;;;;;;79.90;31.05;;;;;;;;;;6246863;28;20059;-67
2022/12/14 05:08:08;;;;;;;82.63;31.15;;;;;;;;;;6245201;28;20136;-68
2022/12/14 05:11:21;;;;;;;70.65;29.45;;;;;;;;;;6248688;28;20049;-67
2022/12/14 05:14:32;;;;;;;74.25;28.77;;;;;;;;;;6263958;28;20492;-67
2022/12/14 05:17:35;;;;;;;75.70;29.52;;;;;;;;;;6254878;28;20057;-67
2022/12/14 05:20:36;;;;;;;59.70;24.20;;;;;;;;;;6251196;28;20128;-65
2022/12/14 05:23:36;;;;;;;60.85;23.48;;;;;;;;;;6268203;28;20053;-67
2022/12/14 05:26:40;;;;;;;62.00;23.17;;;;;;;;;;6259194;28;20048;-66
2022/12/14 05:29:40;;;;;;;57.67;23.05;;;;;;;;;;6257085;28;20041;-67
2022/12/14 05:32:41;;;;;;;66.70;24.48;;;;;;;;;;6266662;28;20080;-66
2022/12/14 05:35:42;;;;;;;69.32;26.65;;;;;;;;;;6260929;28;20128;-67
2022/12/14 05:38:43;;;;;;;59.42;23.80;;;;;;;;;;6254828;28;20053;-68
2022/12/14 05:41:43;;;;;;;54.25;21.50;;;;;;;;;;6266633;28;20041;-69
2022/12/14 05:44:44;;;;;;;55.85;20.88;;;;;;;;;;6259016;28;20487;-67
2022/12/14 05:47:45;;;;;;;60.75;23.10;;;;;;;;;;6246695;28;20060;-69
2022/12/14 05:50:46;;;;;;;59.77;22.27;;;;;;;;;;6252063;28;20061;-67
2022/12/14 05:53:46;;;;;;;60.30;23.08;;;;;;;;;;6247697;28;20305;-66
2022/12/14 05:56:47;;;;;;;65.95;25.25;;;;;;;;;;6275112;28;20052;-67
2022/12/14 05:59:48;;;;;;;64.85;26.85;;;;;;;;;;6257825;28;20484;-69
2022/12/14 06:02:48;;;;;;;70.75;26.60;;;;;;;;;;6251488;28;20481;-67
2022/12/14 06:05:49;;;;;;;68.50;27.38;;;;;;;;;;6252381;28;20049;-66
2022/12/14 06:08:49;;;;;;;63.03;26.42;;;;;;;;;;6248983;28;20045;-66
2022/12/14 06:11:51;;;;;;;72.07;27.20;;;;;;;;;;6249372;28;20041;-67
2022/12/14 06:14:52;;;;;;;75.47;27.27;;;;;;;;;;6251100;28;20513;-66
2022/12/14 06:17:52;;;;;;;63.45;25.10;;;;;;;;;;6248693;28;20041;-65
2022/12/14 06:20:55;;;;;;;66.40;25.65;;;;;;;;;;6262256;28;20041;-66
2022/12/14 06:23:56;;;;;;;61.08;23.77;;;;;;;;;;6253194;28;20140;-67
2022/12/14 06:26:56;;;;;;;58.92;24.23;;;;;;;;;;6247920;28;20051;-66
2022/12/14 06:29:57;;;;;;;65.72;25.55;;;;;;;;;;6248002;28;20439;-66
2022/12/14 06:32:58;;;;;;;63.40;25.33;;;;;;;;;;6249686;28;20049;-66
2022/12/14 06:35:58;;;;;;;61.45;23.90;;;;;;;;;;6249007;28;20042;-66
2022/12/14 06:39:02;;;;;;;59.65;26.88;;;;;;;;;;6249166;28;20123;-66
2022/12/14 06:42:02;;;;;;;62.88;25.58;;;;;;;;;;6249569;28;20049;-65
2022/12/14 06:45:03;;;;;;;62.85;25.30;;;;;;;;;;6250267;28;20060;-65
2022/12/14 06:48:04;;;;;;;58.83;25.20;;;;;;;;;;6249813;28;20064;-66
2022/12/14 06:51:05;;;;;;;120.00;37.72;;;;;;;;;;6247603;28;20056;-67
2022/12/14 06:54:08;;;;;;;103.28;35.88;;;;;;;;;;6249954;28;20047;-66
2022/12/14 06:57:08;;;;;;;89.45;32.08;;;;;;;;;;6249776;28;20045;-66
2022/12/14 07:00:11;;;;;;;105.53;34.70;;;;;;;;;;6247023;28;20052;-66
2022/12/14 07:03:11;;;;;;;82.72;28.95;;;;;;;;;;6249292;28;20073;-66
2022/12/14 07:06:12;;;;;;;76.95;27.77;;;;;;;;;;6247683;28;20049;-67
2022/12/14 07:09:13;;;;;;;78.70;28.15;;;;;;;;;;6250376;28;20049;-67
2022/12/14 07:12:14;;;;;;;89.95;30.83;;;;;;;;;;6249374;28;20664;-62
2022/12/14 07:15:15;;;;;;;83.95;32.78;;;;;;;;;;6252266;28;20053;-65
2022/12/14 07:18:15;;;;;;;79.43;28.80;;;;;;;;;;6267901;28;20399;-65
2022/12/14 07:21:18;;;;;;;85.45;29.10;;;;;;;;;;6269781;28;20140;-63
2022/12/14 07:24:18;;;;;;;82.05;28.42;;;;;;;;;;6269832;28;20056;-62
2022/12/14 07:27:19;;;;;;;65.65;24.85;;;;;;;;;;6258094;28;20041;-63
2022/12/14 07:30:19;;;;;;;63.13;24.58;;;;;;;;;;6251354;28;20525;-64
2022/12/14 07:33:20;;;;;;;63.97;24.90;;;;;;;;;;6258117;28;20072;-63
2022/12/14 07:36:22;;;;;;;67.32;24.75;;;;;;;;;;6267055;28;20045;-63
2022/12/14 07:39:24;;;;;;;;;;;;;;;;;;6267382;28;20414;-62
2022/12/14 07:42:24;;;;;;;66.25;23.92;;;;;;;;;;6268515;28;19932;-62
2022/12/14 07:45:25;;;;;;;69.03;26.13;;;;;;;;;;6268517;28;20695;-62
2022/12/14 07:48:26;;;;;;;68.80;27.65;;;;;;;;;;6267433;28;20041;-63
2022/12/14 07:51:34;;;;;;;69.95;26.65;;;;;;;;;;6251425;28;20161;-62
2022/12/14 07:54:35;;;;;;;64.78;26.10;;;;;;;;;;6252626;28;20562;-62
2022/12/14 07:57:35;;;;;;;65.00;24.77;;;;;;;;;;6255942;28;20037;-65
2022/12/14 08:00:36;;;;;;;59.33;25.13;;;;;;;;;;6266945;28;20139;-63
2022/12/14 08:03:42;;;;;;;78.65;28.67;;;;;;;;;;6267529;28;20136;-62
2022/12/14 08:06:42;;;;;;;75.93;26.92;;;;;;;;;;6268175;28;20504;-63
2022/12/14 08:09:43;;;;;;;66.93;24.50;;;;;;;;;;6263403;28;20060;-63
2022/12/14 08:12:44;;;;;;;70.65;27.67;;;;;;;;;;6268538;28;20502;-62
2022/12/14 08:15:44;;;;;;;90.88;31.15;;;;;;;;;;6249559;28;20049;-63
2022/12/14 08:18:45;;;;;;;80.43;31.20;;;;;;;;;;6248100;28;20048;-62
2022/12/14 08:21:46;;;;;;;82.10;28.75;;;;;;;;;;6246952;28;20132;-63
2022/12/14 08:24:46;;;;;;;73.60;25.67;;;;;;;;;;6251667;28;20049;-63
2022/12/14 08:27:47;;;;;;;66.88;26.58;;;;;;;;;;6248624;28;20391;-63
2022/12/14 08:30:48;;;;;;;63.67;26.48;;;;;;;;;;6249774;28;20067;-63
2022/12/14 08:33:49;;;;;;;77.03;30.83;;;;;;;;;;6251187;28;20454;-62
2022/12/14 08:36:49;;;;;;;61.45;24.92;;;;;;;;;;6261599;28;20053;-64
2022/12/14 08:39:50;;;;;;;62.17;22.15;;;;;;;;;;6264609;28;20052;-63
2022/12/14 08:42:51;;;;;;;57.67;23.85;;;;;;;;;;6267090;28;20387;-62
2022/12/14 08:45:54;;;;;;;64.30;23.42;;;;;;;;;;6267129;28;20047;-63
2022/12/14 08:48:55;;;;;;;57.15;23.40;;;;;;;;;;6265487;28;20114;-64
2022/12/14 08:51:57;;;;;;;62.35;24.17;;;;;;;;;;6265965;28;20572;-63
2022/12/14 08:54:57;;;;;;;77.53;26.05;;;;;;;;;;6258658;28;20053;-63
2022/12/14 08:57:58;;;;;;;76.05;27.58;;;;;;;;;;6266046;28;20351;-63
2022/12/14 09:01:07;;;;;;;63.65;26.48;;;;;;;;;;6265446;28;20422;-64
2022/12/14 09:04:08;;;;;;;62.10;24.75;;;;;;;;;;6266531;28;20045;-63
2022/12/14 09:07:08;;;;;;;62.08;22.30;;;;;;;;;;6253619;28;20052;-64
2022/12/14 09:10:09;;;;;;;56.15;22.42;;;;;;;;;;6250633;28;20566;-64
2022/12/14 09:13:10;;;;;;;63.15;24.63;;;;;;;;;;6258722;28;20099;-62
2022/12/14 09:16:12;;;;;;;59.08;25.27;;;;;;;;;;6262657;28;20538;-62
2022/12/14 09:19:13;;;;;;;64.68;23.73;;;;;;;;;;6265062;28;20049;-64
2022/12/14 09:22:14;;;;;;;64.88;26.77;;;;;;;;;;6266026;28;20454;-64
2022/12/14 09:25:14;;;;;;;47.92;19.15;;;;;;;;;;6266193;28;20060;-64
2022/12/14 09:28:15;;;;;;;49.97;23.77;;;;;;;;;;6260382;28;20059;-64
2022/12/14 09:31:18;;;;;;;41.03;19.55;;;;;;;;;;6261192;28;20052;-65
2022/12/14 09:34:19;;;;;;;53.83;22.17;;;;;;;;;;6262460;28;20051;-62
2022/12/14 09:37:20;;;;;;;72.18;25.77;;;;;;;;;;6246209;28;20095;-62
2022/12/14 09:40:25;;;;;;;50.13;20.38;;;;;;;;;;6243174;28;20447;-62
2022/12/14 09:43:37;;;;;;;55.80;23.67;;;;;;;;;;6241664;28;20080;-62
2022/12/14 09:47:06;;;;;;;50.63;21.83;;;;;;;;;;6242196;28;20510;-61
2022/12/14 09:50:15;;;;;;;65.47;26.92;;;;;;;;;;6240667;28;20054;-62
2022/12/14 09:53:19;;;;;;;49.08;20.73;;;;;;;;;;6239935;28;20171;-62
2022/12/14 09:56:20;;;;;;;42.17;17.90;;;;;;;;;;6257292;28;20411;-63
2022/12/14 09:59:20;;;;;;;55.47;22.98;;;;;;;;;;6265797;28;20058;-62
2022/12/14 10:02:41;;;;;;;59.78;23.67;;;;;;;;;;6264502;28;20049;-63
2022/12/14 10:06:08;;;;;;;50.72;18.55;;;;;;;;;;6264845;28;20041;-64
2022/12/14 10:09:12;;;;;;;44.72;18.42;;;;;;;;;;6265679;28;20053;-64
2022/12/14 10:12:30;;;;;;;41.83;18.17;;;;;;;;;;6265789;28;20047;-62
2022/12/14 10:15:34;;;;;;;47.22;17.88;;;;;;;;;;6264452;28;20049;-62
2022/12/14 10:18:40;;;;;;;52.15;18.67;;;;;;;;;;6264971;28;20424;-62
2022/12/14 10:21:51;;;;;;;38.42;17.35;;;;;;;;;;6265805;28;20066;-62
2022/12/14 10:25:17;;;;;;;44.50;16.42;;;;;;;;;;6253791;28;20049;-64
2022/12/14 10:28:25;;;;;;;40.95;17.48;;;;;;;;;;6246733;28;20046;-63
2022/12/14 10:31:43;;;;;;;40.63;16.25;;;;;;;;;;6243643;28;20037;-64
2022/12/14 10:34:43;;;;;;;36.50;16.33;;;;;;;;;;6243982;28;20081;-63
2022/12/14 10:37:54;;;;;;;43.95;17.45;;;;;;;;;;6245962;28;20045;-63
2022/12/14 10:41:16;;;;;;;49.15;18.88;;;;;;;;;;6248647;28;20056;-62
2022/12/14 10:44:32;;;;;;;50.75;19.13;;;;;;;;;;6250255;28;20410;-62
2022/12/14 10:47:37;;;;;;;42.10;17.33;;;;;;;;;;6250701;28;20041;-62
2022/12/14 10:51:04;;;;;;;42.70;17.75;;;;;;;;;;6247623;28;20678;-62
2022/12/14 10:54:04;;;;;;;44.75;18.80;;;;;;;;;;6250566;28;20160;-62
2022/12/14 10:57:05;;;;;;;48.00;18.83;;;;;;;;;;6249841;28;20131;-63
2022/12/14 11:00:16;;;;;;;45.20;19.13;;;;;;;;;;6252398;28;20041;-62
2022/12/14 11:03:17;;;;;;;48.03;19.08;;;;;;;;;;6250586;28;20046;-67
2022/12/14 11:06:18;;;;;;;56.97;22.05;;;;;;;;;;6247113;28;20061;-62
2022/12/14 11:09:21;;;;;;;56.05;22.05;;;;;;;;;;6247957;28;20045;-62
2022/12/14 11:12:25;;;;;;;53.65;23.40;;;;;;;;;;6247900;28;20530;-63
2022/12/14 11:15:36;;;;;;;54.10;21.65;;;;;;;;;;6246597;28;20053;-62
2022/12/14 11:18:37;;;;;;;57.72;22.48;;;;;;;;;;6249384;28;20081;-62
2022/12/14 11:21:37;;;;;;;56.47;21.88;;;;;;;;;;6249538;28;20125;-62
2022/12/14 11:24:44;;;;;;;65.93;30.35;;;;;;;;;;6249595;28;20048;-62
2022/12/14 11:27:45;;;;;;;52.90;23.77;;;;;;;;;;6248464;28;20049;-62
2022/12/14 11:30:54;;;;;;;50.00;22.58;;;;;;;;;;6250378;28;20052;-62
2022/12/14 11:33:57;;;;;;;63.58;22.75;;;;;;;;;;6247726;28;20132;-62
2022/12/14 11:37:11;;;;;;;50.60;20.85;;;;;;;;;;6247044;28;20099;-62
2022/12/14 11:40:38;;;;;;;63.28;24.00;;;;;;;;;;6251714;28;20067;-62
2022/12/14 11:43:39;;;;;;;65.95;23.25;;;;;;;;;;6244710;28;20472;-64
2022/12/14 11:46:59;;;;;;;55.10;21.45;;;;;;;;;;6245018;28;20055;-62
2022/12/14 11:49:59;;;;;;;46.80;20.25;;;;;;;;;;6248365;28;20079;-62
2022/12/14 11:53:05;;;;;;;53.90;21.55;;;;;;;;;;6246627;28;20557;-63
2022/12/14 11:56:11;;;;;;;51.85;21.30;;;;;;;;;;6252404;28;20049;-64
2022/12/14 11:59:15;;;;;;;55.40;21.77;;;;;;;;;;6258270;28;20048;-62
2022/12/14 12:02:21;;;;;;;60.17;24.27;;;;;;;;;;6250436;28;20052;-62
2022/12/14 12:05:22;;;;;;;62.63;23.88;;;;;;;;;;6246151;28;20530;-62
2022/12/14 12:08:26;;;;;;;61.72;25.63;;;;;;;;;;6245714;28;20116;-63
2022/12/14 12:11:32;;;;;;;54.80;23.95;;;;;;;;;;6252915;28;20128;-63
2022/12/14 12:14:36;;;;;;;53.88;23.02;;;;;;;;;;6259764;28;20072;-62
2022/12/14 12:17:40;;;;;;;57.17;21.90;;;;;;;;;;6248210;28;20529;-62
2022/12/14 12:21:17;;;;;;;60.40;24.10;;;;;;;;;;6245457;28;20053;-62
2022/12/14 12:24:41;;;;;;;51.95;22.00;;;;;;;;;;6247170;28;20411;-62
2022/12/14 12:27:46;;;;;;;52.97;22.60;;;;;;;;;;6249450;28;20487;-62
2022/12/14 12:30:51;;;;;;;60.25;23.42;;;;;;;;;;6250190;28;20541;-62
2022/12/14 12:33:59;;;;;;;66.07;25.85;;;;;;;;;;6250168;28;20045;-62
2022/12/14 12:37:04;;;;;;;53.92;22.27;;;;;;;;;;6257351;28;20147;-62
2022/12/14 12:40:23;;;;;;;54.95;22.23;;;;;;;;;;6267044;28;20064;-62
2022/12/14 12:43:45;;;;;;;54.60;22.15;;;;;;;;;;6247735;28;20107;-63
2022/12/14 12:47:13;;;;;;;48.75;20.90;;;;;;;;;;6246434;28;20050;-63
2022/12/14 12:50:21;;;;;;;48.10;20.48;;;;;;;;;;6245279;28;20058;-64
2022/12/14 12:53:34;;;;;;;51.33;21.23;;;;;;;;;;6247077;28;20056;-62
2022/12/14 12:56:56;;;;;;;54.85;25.52;;;;;;;;;;6246851;28;20106;-62
2022/12/14 12:59:58;;;;;;;51.60;20.67;;;;;;;;;;6251333;28;20065;-62
2022/12/14 13:03:07;;;;;;;48.70;21.05;;;;;;;;;;6245848;28;20057;-62
2022/12/14 13:06:20;;;;;;;53.03;23.55;;;;;;;;;;6245626;28;20052;-62
2022/12/14 13:09:29;;;;;;;70.18;27.15;;;;;;;;;;6248060;28;20446;-62
2022/12/14 13:12:37;;;;;;;79.00;27.02;;;;;;;;;;6247154;28;20091;-62
2022/12/14 13:15:45;;;;;;;98.13;36.17;;;;;;;;;;6244681;28;20420;-62
2022/12/14 13:18:49;;;;;;;116.03;39.13;;;;;;;;;;6246659;28;20099;-62
2022/12/14 13:21:51;;;;;;;84.10;29.73;;;;;;;;;;6250798;28;20793;-63
2022/12/14 13:24:53;;;;;;;61.88;23.83;;;;;;;;;;6250249;28;20061;-62
2022/12/14 13:28:12;;;;;;;66.15;26.95;;;;;;;;;;6247972;28;20135;-66
2022/12/14 13:31:35;;;;;;;57.38;24.33;;;;;;;;;;6254984;28;20507;-64
2022/12/14 13:34:45;;;;;;;48.05;20.52;;;;;;;;;;6264299;28;20045;-62
2022/12/14 13:38:13;;;;;;;61.17;23.83;;;;;;;;;;6246378;28;20408;-62
2022/12/14 13:41:46;;;;;;;50.15;20.48;;;;;;;;;;6266096;28;20114;-62
2022/12/14 13:44:56;;;;;;;53.78;20.23;;;;;;;;;;6255141;28;20042;-64
2022/12/14 13:47:57;;;;;;;52.45;21.58;;;;;;;;;;6248057;28;20064;-63
2022/12/14 13:51:01;;;;;;;54.65;22.00;;;;;;;;;;6248634;28;20049;-62
2022/12/14 13:54:15;;;;;;;60.25;23.42;;;;;;;;;;6249913;28;20064;-63
2022/12/14 13:57:22;;;;;;;58.95;23.75;;;;;;;;;;6247678;28;20638;-63
2022/12/14 14:00:50;;;;;;;51.65;22.23;;;;;;;;;;6246663;28;20045;-60
2022/12/14 14:03:53;;;;;;;58.25;23.30;;;;;;;;;;6247106;28;20052;-62
2022/12/14 14:07:15;;;;;;;76.22;28.02;;;;;;;;;;6247508;28;20095;-63
2022/12/14 14:10:37;;;;;;;66.47;24.50;;;;;;;;;;6247585;28;20068;-63
2022/12/14 14:13:37;;;;;;;68.75;23.73;;;;;;;;;;6249749;28;20490;-67
2022/12/14 14:16:43;;;;;;;55.67;22.67;;;;;;;;;;6254224;28;20056;-64
2022/12/14 14:19:44;;;;;;;55.22;20.77;;;;;;;;;;6250927;28;20127;-64
2022/12/14 14:23:27;;;;;;;59.63;23.63;;;;;;;;;;6264998;28;20053;-68
2022/12/14 14:26:30;;;;;;;60.80;22.52;;;;;;;;;;6246654;28;20950;-65
2022/12/14 14:29:31;;;;;;;;;;;;;;;;;;6253997;28;20106;-65
2022/12/14 14:32:39;;;;;;;53.45;20.85;;;;;;;;;;6245858;28;19929;-62
2022/12/14 14:35:39;;;;;;;53.08;24.05;;;;;;;;;;6247510;28;20068;-64
2022/12/14 14:38:40;;;;;;;53.20;21.95;;;;;;;;;;6246746;28;20555;-62
2022/12/14 14:41:42;;;;;;;54.13;22.08;;;;;;;;;;6247212;28;20056;-63
2022/12/14 14:44:58;;;;;;;62.00;27.42;;;;;;;;;;6251286;28;20411;-62
2022/12/14 14:48:01;;;;;;;67.30;25.38;;;;;;;;;;6252410;28;20465;-62
2022/12/14 14:51:17;;;;;;;62.22;25.60;;;;;;;;;;6251895;28;20148;-64
2022/12/14 14:54:17;;;;;;;69.57;28.15;;;;;;;;;;6243053;28;20057;-61
2022/12/14 14:57:54;;;;;;;72.80;27.98;;;;;;;;;;6246318;28;20051;-63
2022/12/14 15:01:16;;;;;;;81.18;30.25;;;;;;;;;;6245720;28;20057;-63
2022/12/14 15:04:20;;;;;;;81.82;30.08;;;;;;;;;;6250475;28;21327;-63
2022/12/14 15:07:28;;;;;;;77.05;28.90;;;;;;;;;;6250575;28;20060;-66
2022/12/14 15:10:41;;;;;;;66.53;28.83;;;;;;;;;;6248061;28;20048;-63
2022/12/14 15:13:45;;;;;;;;;;;;;;;;;;6246496;28;20049;-63
2022/12/14 15:16:46;;;;;;;75.90;32.35;;;;;;;;;;6247119;28;19925;-62
2022/12/14 15:20:00;;;;;;;75.82;30.25;;;;;;;;;;6247590;28;20128;-62
2022/12/14 15:23:04;;;;;;;68.55;28.45;;;;;;;;;;6243930;28;20051;-63
2022/12/14 15:26:19;;;;;;;67.22;28.15;;;;;;;;;;6246673;28;20037;-62
2022/12/14 15:29:25;;;;;;;69.40;27.85;;;;;;;;;;6246684;28;20741;-60
2022/12/14 15:32:26;;;;;;;70.10;26.85;;;;;;;;;;6245313;28;20052;-62
2022/12/14 15:35:31;;;;;;;70.90;29.35;;;;;;;;;;6245849;28;20044;-63
2022/12/14 15:38:35;;;;;;;81.03;30.73;;;;;;;;;;6247484;28;20076;-63
2022/12/14 15:41:37;;;;;;;78.60;31.48;;;;;;;;;;6249055;28;20052;-65
2022/12/14 15:44:46;;;;;;;98.78;30.13;;;;;;;;;;6246367;28;20049;-63
2022/12/14 15:47:47;;;;;;;71.55;30.13;;;;;;;;;;6248671;28;20482;-62
2022/12/14 15:51:11;;;;;;;62.95;27.75;;;;;;;;;;6248614;28;20056;-61
2022/12/14 15:54:19;;;;;;;70.18;27.75;;;;;;;;;;6245756;28;20064;-63
2022/12/14 15:57:20;;;;;;;74.25;28.35;;;;;;;;;;6245569;28;20462;-63
2022/12/14 16:00:21;;;;;;;67.68;27.00;;;;;;;;;;6245343;28;20040;-63
2022/12/14 16:03:37;;;;;;;72.13;26.42;;;;;;;;;;6245553;28;20573;-62
2022/12/14 16:06:44;;;;;;;70.60;26.00;;;;;;;;;;6248060;28;20048;-63
2022/12/14 16:09:49;;;;;;;74.90;29.02;;;;;;;;;;6246658;28;20056;-63
2022/12/14 16:12:56;;;;;;;73.03;29.25;;;;;;;;;;6246212;28;20052;-62
2022/12/14 16:16:02;;;;;;;83.88;32.95;;;;;;;;;;6247064;28;20059;-62
2022/12/14 16:19:06;;;;;;;69.75;27.33;;;;;;;;;;6247222;28;20440;-62
2022/12/14 16:22:20;;;;;;;66.40;26.15;;;;;;;;;;6248450;28;20060;-63
2022/12/14 16:25:22;;;;;;;68.13;26.70;;;;;;;;;;6248040;28;20072;-63
2022/12/14 16:28:33;;;;;;;76.75;28.63;;;;;;;;;;6248864;28;20053;-63
2022/12/14 16:31:36;;;;;;;69.53;26.50;;;;;;;;;;6247721;28;20068;-62
2022/12/14 16:34:36;;;;;;;92.22;33.58;;;;;;;;;;6251160;28;20534;-62
2022/12/14 16:37:37;;;;;;;104.35;38.55;;;;;;;;;;6247032;28;20059;-62
2022/12/14 16:40:41;;;;;;;102.75;36.15;;;;;;;;;;6244757;28;20053;-64
2022/12/14 16:43:54;;;;;;;86.65;32.15;;;;;;;;;;6244683;28;20049;-63
2022/12/14 16:47:01;;;;;;;86.82;32.85;;;;;;;;;;6245623;28;20060;-62
2022/12/14 16:50:19;;;;;;;87.78;30.75;;;;;;;;;;6245155;28;20743;-63
2022/12/14 16:53:26;;;;;;;79.28;31.25;;;;;;;;;;6247243;28;20480;-63
2022/12/14 16:56:39;;;;;;;72.47;29.70;;;;;;;;;;6257307;28;20410;-62
2022/12/14 16:59:42;;;;;;;76.15;30.65;;;;;;;;;;6255725;28;20067;-62
2022/12/14 17:02:51;;;;;;;82.78;30.17;;;;;;;;;;6254180;28;20070;-62
2022/12/14 17:06:00;;;;;;;76.07;30.02;;;;;;;;;;6256274;28;20055;-62
2022/12/14 17:09:02;;;;;;;78.75;30.10;;;;;;;;;;6256910;28;20102;-61
2022/12/14 17:12:12;;;;;;;79.53;29.33;;;;;;;;;;6255305;28;20459;-61
2022/12/14 17:15:19;;;;;;;79.78;28.60;;;;;;;;;;6250157;28;20063;-61
2022/12/14 17:18:21;;;;;;;72.75;29.63;;;;;;;;;;6247295;28;20065;-61
2022/12/14 17:21:27;;;;;;;71.15;28.08;;;;;;;;;;6247750;28;20047;-63
2022/12/14 17:24:29;;;;;;;82.82;32.30;;;;;;;;;;6242596;28;20056;-61
2022/12/14 17:27:30;;;;;;;80.05;30.17;;;;;;;;;;6244572;28;20052;-61
2022/12/14 17:30:32;;;;;;;83.18;31.17;;;;;;;;;;6244871;28;20049;-61
2022/12/14 17:33:32;;;;;;;78.15;29.67;;;;;;;;;;6245361;28;20054;-61
2022/12/14 17:36:33;;;;;;;81.18;32.65;;;;;;;;;;6244951;28;20632;-61
2022/12/14 17:39:36;;;;;;;81.65;33.05;;;;;;;;;;6247089;28;20044;-61
2022/12/14 17:42:38;;;;;;;75.00;30.23;;;;;;;;;;6244177;28;20053;-61
2022/12/14 17:45:40;;;;;;;91.63;33.42;;;;;;;;;;6244087;28;20211;-62
2022/12/14 17:48:40;;;;;;;81.70;31.95;;;;;;;;;;6247048;28;20075;-61
2022/12/14 17:51:44;;;;;;;84.90;31.80;;;;;;;;;;6253772;28;20045;-61
2022/12/14 17:54:45;;;;;;;88.90;34.67;;;;;;;;;;6250078;28;20169;-61
2022/12/14 17:57:46;;;;;;;85.78;32.13;;;;;;;;;;6248847;28;20042;-60
2022/12/14 18:00:59;;;;;;;86.53;32.53;;;;;;;;;;6248790;28;20045;-61
2022/12/14 18:04:00;;;;;;;91.68;32.13;;;;;;;;;;6250646;28;20060;-61
2022/12/14 18:07:01;;;;;;;90.40;36.03;;;;;;;;;;6249236;28;20057;-61
2022/12/14 18:10:02;;;;;;;84.25;34.47;;;;;;;;;;6249352;28;20059;-65
2022/12/14 18:13:04;;;;;;;87.75;33.80;;;;;;;;;;6249507;28;20053;-61